Clyde, Iowa
Current Conditions -  °F | °C
As of 3:53 AM on Tuesday 21 Oct 2014 (Local Time) from KAMW Reporting Station
Clear Clear  
Wind Chill: 41°   Ceiling: Unl
Heat Index: 41°   Visibility: 10mi
Dew Point: 37°   Wind: 3mph
Humidity: 86%   Direction: 350°N
Pressure: 30.09"   Gusts: NA
Location:  41.9063°N, 93.2893°W
Report Text: KAMW 210853Z AUTO 35003KT 10SM CLR 05/03 A3009 RMK AO2 SLP186 T00500028 52007
Loading
Personal Weather Stations






























Interactive Weather Map New forecast layout! Learn more

10-Day Weather Forecast

Advertisements
Track Severe Weather on mobile